createdAt,value
2018-03-20T00:00:18.833Z,23.73
2018-03-20T00:02:54.226Z,23.53
2018-03-20T00:05:28.748Z,27.87
2018-03-20T00:08:03.291Z,22.03
2018-03-20T00:10:37.892Z,24.73
2018-03-20T00:13:12.116Z,26.10
2018-03-20T00:15:46.115Z,23.97
2018-03-20T00:18:20.647Z,23.70
2018-03-20T00:20:54.445Z,25.43
2018-03-20T00:23:29.718Z,26.17
2018-03-20T00:26:03.844Z,23.83
2018-03-20T00:28:38.647Z,26.27
2018-03-20T00:31:12.600Z,23.87
2018-03-20T00:33:46.365Z,22.47
2018-03-20T00:36:20.944Z,22.33
2018-03-20T00:38:55.687Z,22.23
2018-03-20T00:41:30.844Z,25.47
2018-03-20T00:44:04.553Z,25.00
2018-03-20T00:46:39.180Z,27.00
2018-03-20T00:49:13.981Z,25.13
2018-03-20T00:51:47.790Z,27.90
2018-03-20T00:54:23.023Z,25.90
2018-03-20T00:56:57.036Z,26.80
2018-03-20T00:59:31.293Z,24.70
2018-03-20T01:02:05.781Z,28.97
2018-03-20T01:04:39.575Z,26.13
2018-03-20T01:07:13.571Z,27.03
2018-03-20T01:09:47.999Z,24.17
2018-03-20T01:12:21.824Z,24.67
2018-03-20T01:14:55.711Z,25.37
2018-03-20T01:17:29.925Z,29.13
2018-03-20T01:20:04.710Z,26.47
2018-03-20T01:22:38.501Z,26.93
2018-03-20T01:25:13.212Z,28.33
2018-03-20T01:27:47.826Z,28.47
2018-03-20T01:30:22.251Z,24.80
2018-03-20T01:32:56.960Z,26.87
2018-03-20T01:35:31.277Z,30.10
2018-03-20T01:38:05.333Z,28.67
2018-03-20T01:40:39.152Z,24.97
2018-03-20T01:43:13.677Z,23.77
2018-03-20T01:45:47.510Z,28.60
2018-03-20T01:48:22.024Z,28.17
2018-03-20T01:50:56.658Z,28.87
2018-03-20T01:53:31.992Z,31.07
2018-03-20T01:56:06.606Z,23.90
2018-03-20T01:58:41.959Z,31.27
2018-03-20T02:01:16.704Z,30.60
2018-03-20T02:03:50.903Z,29.50
2018-03-20T02:06:25.422Z,28.90
2018-03-20T02:08:59.923Z,28.73
2018-03-20T02:11:34.760Z,26.43
2018-03-20T02:14:09.717Z,28.60
2018-03-20T02:16:43.839Z,26.07
2018-03-20T02:19:17.919Z,27.23
2018-03-20T02:21:52.435Z,29.93
2018-03-20T02:24:26.208Z,26.30
2018-03-20T02:27:00.613Z,25.23
2018-03-20T02:29:35.017Z,28.43
2018-03-20T02:32:08.998Z,29.27
2018-03-20T02:34:42.728Z,30.10
2018-03-20T02:37:16.431Z,23.80
2018-03-20T02:39:50.610Z,27.17
2018-03-20T02:42:24.312Z,29.57
2018-03-20T02:44:59.042Z,24.77
2018-03-20T02:47:33.051Z,26.17
2018-03-20T02:50:06.658Z,28.57
2018-03-20T02:52:40.572Z,25.47
2018-03-20T02:55:15.081Z,31.17
2018-03-20T02:57:49.622Z,24.23
2018-03-20T03:00:24.129Z,29.33
2018-03-20T03:02:58.877Z,28.30
2018-03-20T03:05:32.953Z,28.90
2018-03-20T03:08:06.859Z,27.90
2018-03-20T03:10:41.591Z,24.60
2018-03-20T03:13:16.431Z,27.77
2018-03-20T03:15:51.447Z,26.43
2018-03-20T03:18:25.337Z,29.83
2018-03-20T03:20:59.143Z,28.23
2018-03-20T03:23:33.663Z,27.73
2018-03-20T03:26:08.695Z,29.37
2018-03-20T03:28:43.244Z,28.23
2018-03-20T03:31:17.205Z,26.20
2018-03-20T03:33:51.162Z,28.80
2018-03-20T03:36:25.572Z,26.17
2018-03-20T03:38:59.347Z,28.70
2018-03-20T03:41:33.153Z,27.67
2018-03-20T03:44:07.216Z,29.90
2018-03-20T03:46:41.359Z,30.07
2018-03-20T03:49:15.444Z,30.63
2018-03-20T03:51:49.228Z,28.17
2018-03-20T03:54:23.862Z,27.97
2018-03-20T03:56:57.895Z,28.93
2018-03-20T03:59:32.609Z,35.30
2018-03-20T04:02:07.016Z,27.67
2018-03-20T04:04:41.036Z,27.23
2018-03-20T04:07:15.654Z,29.03
2018-03-20T04:09:50.295Z,30.60
2018-03-20T04:12:24.380Z,31.33
2018-03-20T04:14:58.827Z,30.87
2018-03-20T04:17:32.920Z,30.33
2018-03-20T04:20:06.775Z,31.23
2018-03-20T04:22:41.508Z,27.30
2018-03-20T04:25:16.212Z,27.50
2018-03-20T04:27:50.285Z,29.47
2018-03-20T04:30:24.599Z,31.00
2018-03-20T04:32:58.507Z,31.33
2018-03-20T04:35:33.556Z,28.00
2018-03-20T04:38:07.535Z,32.57
2018-03-20T04:40:41.452Z,24.10
2018-03-20T04:43:15.772Z,30.10
2018-03-20T04:45:50.391Z,31.93
2018-03-20T04:48:25.446Z,31.47
2018-03-20T04:50:59.948Z,29.77
2018-03-20T04:53:34.813Z,29.13
2018-03-20T04:56:08.427Z,33.03
2018-03-20T04:58:42.292Z,29.77
2018-03-20T05:01:16.002Z,30.73
2018-03-20T05:03:50.602Z,30.37
2018-03-20T05:06:24.116Z,30.97
2018-03-20T05:08:57.899Z,31.20
2018-03-20T05:11:32.133Z,29.17
2018-03-20T05:14:06.836Z,30.53
2018-03-20T05:16:41.599Z,30.47
2018-03-20T05:19:31.555Z,29.93
2018-03-20T05:22:11.524Z,30.43
2018-03-20T05:24:45.933Z,33.03
2018-03-20T05:27:19.840Z,30.03
2018-03-20T05:29:54.988Z,28.93
2018-03-20T05:32:29.192Z,28.93
2018-03-20T05:35:03.555Z,29.90
2018-03-20T05:37:38.143Z,32.00
2018-03-20T05:40:12.154Z,30.43
2018-03-20T05:42:47.583Z,31.17
2018-03-20T05:45:21.563Z,33.80
2018-03-20T06:01:19.334Z,30.40
2018-03-20T06:03:53.872Z,33.83
2018-03-20T06:06:28.287Z,32.47
2018-03-20T06:09:02.720Z,33.13
2018-03-20T06:11:36.404Z,33.13
2018-03-20T06:14:10.201Z,33.50
2018-03-20T06:16:45.151Z,31.60
2018-03-20T06:19:19.130Z,34.77
2018-03-20T06:21:54.180Z,36.27
2018-03-20T06:24:28.414Z,35.93
2018-03-20T06:27:05.079Z,33.03
2018-03-20T06:29:39.692Z,34.07
2018-03-20T06:32:14.829Z,32.13
2018-03-20T06:34:48.841Z,36.33
2018-03-20T06:37:25.101Z,36.33
2018-03-20T06:39:59.008Z,27.20
2018-03-20T06:42:33.997Z,30.07
2018-03-20T06:45:08.585Z,31.67
2018-03-20T06:47:43.602Z,30.13
2018-03-20T06:50:18.842Z,29.90
2018-03-20T06:52:53.507Z,31.00
2018-03-20T06:55:28.190Z,31.97
2018-03-20T06:58:02.932Z,31.57
2018-03-20T07:00:37.862Z,40.90
2018-03-20T07:03:13.290Z,35.97
2018-03-20T07:05:49.614Z,34.13
2018-03-20T07:08:24.405Z,32.03
2018-03-20T07:10:58.436Z,33.37
2018-03-20T07:13:33.338Z,35.27
2018-03-20T07:16:08.252Z,30.87
2018-03-20T07:18:43.896Z,31.63
2018-03-20T07:21:18.003Z,33.07
2018-03-20T07:23:53.828Z,33.43
2018-03-20T07:26:27.664Z,30.80
2018-03-20T07:29:02.036Z,30.53
2018-03-20T07:31:36.152Z,32.20
2018-03-20T07:34:09.935Z,31.00
2018-03-20T07:36:44.631Z,36.90
2018-03-20T07:39:18.287Z,32.03
2018-03-20T07:41:52.127Z,32.87
2018-03-20T07:44:25.699Z,29.40
2018-03-20T07:46:59.991Z,27.60
2018-03-20T07:49:34.280Z,29.43
2018-03-20T07:52:09.496Z,28.10
2018-03-20T07:54:43.203Z,31.77
2018-03-20T07:57:16.880Z,31.93
2018-03-20T07:59:50.461Z,27.73
2018-03-20T08:02:24.024Z,29.67
2018-03-20T08:04:58.340Z,30.07
2018-03-20T08:07:31.880Z,33.00
2018-03-20T08:10:05.470Z,31.57
2018-03-20T08:12:39.775Z,31.80
2018-03-20T08:15:14.087Z,33.30
2018-03-20T08:17:48.439Z,30.67
2018-03-20T08:20:22.443Z,29.43
2018-03-20T08:22:56.041Z,31.27
2018-03-20T08:25:29.787Z,32.33
2018-03-20T08:28:04.317Z,30.23
2018-03-20T08:30:38.026Z,29.60
2018-03-20T08:33:11.899Z,30.43
2018-03-20T08:35:46.396Z,31.40
2018-03-20T08:38:19.908Z,31.97
2018-03-20T08:40:53.524Z,29.33
2018-03-20T08:43:27.183Z,34.17
2018-03-20T08:46:00.928Z,33.20
2018-03-20T08:48:34.707Z,31.50
2018-03-20T08:51:09.292Z,31.67
2018-03-20T08:53:42.867Z,30.53
2018-03-20T08:56:17.291Z,30.03
2018-03-20T08:58:52.862Z,34.40
2018-03-20T09:01:27.175Z,30.87
2018-03-20T09:04:01.680Z,27.57
2018-03-20T09:06:35.412Z,30.10
2018-03-20T09:09:09.891Z,28.20
2018-03-20T09:11:43.520Z,32.23
2018-03-20T09:14:17.955Z,34.93
2018-03-20T09:16:51.587Z,34.10
2018-03-20T09:19:25.317Z,36.07
2018-03-20T09:21:59.087Z,32.00
2018-03-20T09:24:32.772Z,32.37
2018-03-20T09:27:06.473Z,32.07
2018-03-20T09:29:41.033Z,35.20
2018-03-20T09:32:14.559Z,33.57
2018-03-20T09:34:48.362Z,29.83
2018-03-20T09:37:21.811Z,31.37
2018-03-20T09:39:56.200Z,27.83
2018-03-20T09:42:30.652Z,27.80
2018-03-20T09:45:04.481Z,28.67
2018-03-20T09:47:38.217Z,30.53
2018-03-20T09:50:12.188Z,32.80
2018-03-20T09:52:45.658Z,29.13
2018-03-20T09:55:19.385Z,26.77
2018-03-20T09:57:53.891Z,28.17
2018-03-20T10:00:28.267Z,29.63
2018-03-20T10:03:02.112Z,26.27
2018-03-20T10:05:35.917Z,27.13
2018-03-20T10:08:09.634Z,29.33
2018-03-20T10:10:43.259Z,28.77
2018-03-20T10:13:17.025Z,28.30
2018-03-20T10:15:51.975Z,25.27
2018-03-20T10:18:25.563Z,27.70
2018-03-20T10:21:00.096Z,26.10
2018-03-20T10:23:33.763Z,26.10
2018-03-20T10:26:07.491Z,26.60
2018-03-20T10:28:41.803Z,22.60
2018-03-20T10:31:15.367Z,24.83
2018-03-20T10:33:49.676Z,23.67
2018-03-20T10:36:24.133Z,32.13
2018-03-20T10:38:57.692Z,26.30
2018-03-20T10:41:31.242Z,26.20
2018-03-20T10:44:04.819Z,29.93
2018-03-20T10:46:38.592Z,33.60
2018-03-20T10:49:12.206Z,36.17
2018-03-20T10:51:45.926Z,36.13
2018-03-20T10:54:19.568Z,25.10
2018-03-20T10:56:53.471Z,20.27
2018-03-20T10:59:27.955Z,19.23
2018-03-20T11:02:07.390Z,22.13
2018-03-20T11:04:41.826Z,17.63
2018-03-20T11:07:15.468Z,20.17
2018-03-20T11:09:49.163Z,19.07
2018-03-20T11:12:22.902Z,18.90
2018-03-20T11:14:56.667Z,17.63
2018-03-20T11:17:31.250Z,20.67
2018-03-20T11:20:05.653Z,17.37
2018-03-20T11:22:39.146Z,18.33
2018-03-20T11:25:12.772Z,17.43
2018-03-20T11:27:47.359Z,15.90
2018-03-20T11:30:20.968Z,14.73
2018-03-20T11:32:54.771Z,17.03
2018-03-20T11:35:28.392Z,20.53
2018-03-20T11:38:02.036Z,15.13
2018-03-20T11:40:37.388Z,14.57
2018-03-20T11:43:11.597Z,18.20
2018-03-20T11:45:45.827Z,14.37
2018-03-20T11:48:19.827Z,16.23
2018-03-20T11:50:53.944Z,17.50
2018-03-20T11:53:27.755Z,14.57
2018-03-20T11:56:01.438Z,14.80
2018-03-20T11:58:36.063Z,14.27
2018-03-20T12:01:09.939Z,14.10
2018-03-20T12:03:45.636Z,13.17
2018-03-20T12:06:20.388Z,16.90
2018-03-20T12:09:06.013Z,12.20
2018-03-20T12:11:40.813Z,13.60
2018-03-20T12:14:16.061Z,12.63
2018-03-20T12:16:50.769Z,12.03
2018-03-20T12:19:25.764Z,12.83
2018-03-20T12:22:00.579Z,12.17
2018-03-20T12:24:35.503Z,13.47
2018-03-20T12:27:09.621Z,13.10
2018-03-20T12:29:44.018Z,12.37
2018-03-20T12:32:17.746Z,14.53
2018-03-20T12:34:51.709Z,17.10
2018-03-20T12:37:26.688Z,14.03
2018-03-20T12:40:01.064Z,14.10
2018-03-20T12:42:34.817Z,13.10
2018-03-20T12:45:08.603Z,13.67
2018-03-20T12:47:42.739Z,12.73
2018-03-20T12:50:17.548Z,10.27
2018-03-20T12:52:52.969Z,9.33
2018-03-20T12:55:27.512Z,8.37
2018-03-20T12:58:01.174Z,10.00
2018-03-20T13:00:34.851Z,9.07
2018-03-20T13:03:08.457Z,7.53
2018-03-20T13:05:43.099Z,8.07
2018-03-20T13:08:18.577Z,9.50
2018-03-20T13:10:52.867Z,7.63
2018-03-20T13:13:26.539Z,9.50
2018-03-20T13:16:02.027Z,10.53
2018-03-20T13:18:36.884Z,8.73
2018-03-20T13:21:11.250Z,8.83
2018-03-20T13:23:45.628Z,8.47
2018-03-20T13:26:20.526Z,8.50
2018-03-20T13:28:54.550Z,11.47
2018-03-20T13:31:28.813Z,12.30
2018-03-20T13:34:03.194Z,14.33
2018-03-20T13:36:37.619Z,14.13
2018-03-20T13:39:13.458Z,12.90
2018-03-20T13:41:47.612Z,13.10
2018-03-20T13:44:21.878Z,13.53
2018-03-20T13:46:56.711Z,18.53
2018-03-20T13:49:31.238Z,17.53
2018-03-20T13:52:05.140Z,12.43
2018-03-20T13:54:39.870Z,16.10
2018-03-20T13:57:16.229Z,16.10
2018-03-20T13:59:52.355Z,13.73
2018-03-20T14:02:27.529Z,16.67
2018-03-20T14:05:02.784Z,14.23
2018-03-20T14:07:37.483Z,17.73
2018-03-20T14:10:13.550Z,14.57
2018-03-20T14:12:48.169Z,11.90
2018-03-20T14:15:21.879Z,14.90
2018-03-20T14:17:57.320Z,14.57
2018-03-20T14:20:32.083Z,16.77
2018-03-20T14:23:06.681Z,16.40
2018-03-20T14:25:42.337Z,15.73
2018-03-20T14:28:16.416Z,15.10
2018-03-20T14:30:50.128Z,18.03
2018-03-20T14:33:25.040Z,15.20
2018-03-20T14:35:59.675Z,16.63
2018-03-20T14:38:35.567Z,15.13
2018-03-20T14:41:10.470Z,16.40
2018-03-20T14:43:46.228Z,15.93
2018-03-20T14:46:19.919Z,18.13
2018-03-20T14:48:54.767Z,16.13
2018-03-20T14:51:28.754Z,17.03
2018-03-20T14:54:03.312Z,18.00
2018-03-20T14:56:37.729Z,17.43
2018-03-20T14:59:12.089Z,19.97
2018-03-20T15:01:46.997Z,16.70
2018-03-20T15:04:21.018Z,17.60
2018-03-20T15:06:55.778Z,17.23
2018-03-20T15:09:30.625Z,16.97
2018-03-20T15:12:05.268Z,17.23
2018-03-20T15:14:39.036Z,21.80
2018-03-20T15:17:14.242Z,17.60
2018-03-20T15:19:48.810Z,29.50
2018-03-20T15:22:23.729Z,19.53
2018-03-20T15:24:57.944Z,20.87
2018-03-20T15:27:33.570Z,21.00
2018-03-20T15:30:07.536Z,22.43
2018-03-20T15:32:42.232Z,20.87
2018-03-20T15:35:18.051Z,22.43
2018-03-20T15:37:52.412Z,21.80
2018-03-20T15:40:26.455Z,20.43
2018-03-20T15:43:00.524Z,24.93
2018-03-20T15:45:35.143Z,25.90
2018-03-20T15:48:09.683Z,33.50
2018-03-20T15:50:44.615Z,21.23
2018-03-20T15:53:18.601Z,37.17
2018-03-20T15:55:52.622Z,29.87
2018-03-20T15:58:26.821Z,21.90
2018-03-20T16:01:00.941Z,29.47
2018-03-20T16:03:36.083Z,23.53
2018-03-20T16:06:10.079Z,38.37
2018-03-20T16:08:45.648Z,24.40
2018-03-20T16:11:19.243Z,26.80
2018-03-20T16:13:54.656Z,21.53
2018-03-20T16:16:29.395Z,23.50
2018-03-20T16:19:05.061Z,31.37
2018-03-20T16:21:40.225Z,20.70
2018-03-20T16:24:14.597Z,21.23
2018-03-20T16:26:49.124Z,22.23
2018-03-20T16:29:23.968Z,24.77
2018-03-20T16:31:58.673Z,22.43
2018-03-20T16:34:33.706Z,21.53
2018-03-20T16:37:08.326Z,20.87
2018-03-20T16:39:42.517Z,21.37
2018-03-20T16:42:17.588Z,19.20
2018-03-20T16:44:51.900Z,22.50
2018-03-20T16:47:26.524Z,24.23
2018-03-20T16:50:00.432Z,29.10
2018-03-20T16:52:34.955Z,32.13
2018-03-20T16:55:08.939Z,31.13
2018-03-20T16:57:45.423Z,28.03
2018-03-20T17:00:20.354Z,60.27
2018-03-20T17:02:55.811Z,29.13
2018-03-20T17:05:30.674Z,29.80
2018-03-20T17:08:06.038Z,32.10
2018-03-20T17:10:40.999Z,27.77
2018-03-20T17:13:15.742Z,30.17
2018-03-20T17:15:49.627Z,29.10
2018-03-20T17:18:24.330Z,25.67
2018-03-20T17:20:58.774Z,27.43
2018-03-20T17:23:33.486Z,28.07
2018-03-20T17:26:08.337Z,30.53
2018-03-20T17:28:43.150Z,26.83
2018-03-20T17:31:17.758Z,27.00
2018-03-20T17:33:51.492Z,25.47
2018-03-20T17:36:26.749Z,28.50
2018-03-20T17:39:01.151Z,26.43
2018-03-20T17:41:37.529Z,27.70
2018-03-20T17:44:11.709Z,24.93
2018-03-20T17:46:45.552Z,27.07
2018-03-20T17:49:19.551Z,22.80
2018-03-20T17:51:55.389Z,26.03
2018-03-20T17:54:29.995Z,26.63
2018-03-20T17:57:05.679Z,27.40
2018-03-20T17:59:39.675Z,26.33
2018-03-20T18:02:15.015Z,24.77
2018-03-20T18:04:49.758Z,32.60
2018-03-20T18:07:25.481Z,28.80
2018-03-20T18:09:59.204Z,30.10
2018-03-20T18:12:34.427Z,32.00
2018-03-20T18:15:08.847Z,37.20
2018-03-20T18:17:43.387Z,30.73
2018-03-20T18:20:17.595Z,31.37
2018-03-20T18:22:52.313Z,32.03
2018-03-20T18:25:27.133Z,32.37
2018-03-20T18:28:01.268Z,31.30
2018-03-20T18:30:36.392Z,28.40
2018-03-20T18:33:11.421Z,33.87
2018-03-20T18:35:45.439Z,31.83
2018-03-20T18:38:19.451Z,32.73
2018-03-20T18:40:55.105Z,30.27
2018-03-20T18:43:28.975Z,32.63
2018-03-20T18:46:06.195Z,33.67
2018-03-20T18:48:40.734Z,33.80
2018-03-20T18:51:16.862Z,32.87
2018-03-20T18:53:51.897Z,34.77
2018-03-20T18:56:25.916Z,32.93
2018-03-20T18:58:59.659Z,35.53
2018-03-20T19:01:33.596Z,36.50
2018-03-20T19:04:07.739Z,32.87
2018-03-20T19:06:43.542Z,32.57
2018-03-20T19:09:17.778Z,34.27
2018-03-20T19:11:53.146Z,36.80
2018-03-20T19:14:28.332Z,32.50
2018-03-20T19:17:03.259Z,34.87
2018-03-20T19:19:37.620Z,34.57
2018-03-20T19:22:13.284Z,34.80
2018-03-20T19:24:49.336Z,37.20
2018-03-20T19:27:23.755Z,33.43
2018-03-20T19:29:58.251Z,33.53
2018-03-20T19:32:33.070Z,37.07
2018-03-20T19:35:09.168Z,37.37
2018-03-20T19:37:43.691Z,34.93
2018-03-20T19:40:17.539Z,38.07
2018-03-20T19:42:52.313Z,37.93
2018-03-20T19:45:26.012Z,41.50
2018-03-20T19:48:01.910Z,40.07
2018-03-20T19:50:37.527Z,43.40
2018-03-20T19:53:12.973Z,44.97
2018-03-20T19:55:47.186Z,34.73
2018-03-20T19:58:21.756Z,40.27
2018-03-20T20:00:56.432Z,47.77
2018-03-20T20:03:31.021Z,56.83
2018-03-20T20:06:06.373Z,46.63
2018-03-20T20:08:43.569Z,57.27
2018-03-20T20:11:19.020Z,49.20
2018-03-20T20:13:54.646Z,44.73
2018-03-20T20:16:29.897Z,44.33
2018-03-20T20:19:06.254Z,43.13
2018-03-20T20:21:40.286Z,43.27
2018-03-20T20:24:17.563Z,61.80
2018-03-20T20:26:52.403Z,47.13
2018-03-20T20:29:27.110Z,43.10
2018-03-20T20:32:02.682Z,44.77
2018-03-20T20:34:37.596Z,49.67
2018-03-20T20:37:12.839Z,41.53
2018-03-20T20:39:47.994Z,48.37
2018-03-20T20:42:22.034Z,55.60
2018-03-20T20:44:56.079Z,46.97
2018-03-20T20:47:34.903Z,44.87
2018-03-20T20:50:09.216Z,46.40
2018-03-20T20:52:45.680Z,47.40
2018-03-20T20:55:19.592Z,43.47
2018-03-20T20:57:56.327Z,50.53
2018-03-20T21:00:35.564Z,44.37
2018-03-20T21:03:11.355Z,57.03
2018-03-20T21:05:46.361Z,55.77
2018-03-20T21:08:21.271Z,46.23
2018-03-20T21:10:56.851Z,56.87
2018-03-20T21:13:30.749Z,44.20
2018-03-20T21:16:07.128Z,45.60
2018-03-20T21:18:42.781Z,47.23
2018-03-20T21:21:18.732Z,43.20
2018-03-20T21:23:57.671Z,46.93
2018-03-20T21:26:34.035Z,48.70
2018-03-20T21:29:08.251Z,37.40
2018-03-20T21:31:44.838Z,62.40
2018-03-20T21:34:19.736Z,46.77
2018-03-20T21:36:55.609Z,40.33
2018-03-20T21:39:29.506Z,41.20
2018-03-20T21:42:04.616Z,38.80
2018-03-20T21:44:39.353Z,40.83
2018-03-20T21:47:15.428Z,36.87
2018-03-20T21:49:50.357Z,42.87
2018-03-20T21:52:24.676Z,41.93
2018-03-20T21:55:00.730Z,34.10
2018-03-20T21:57:37.419Z,38.60
2018-03-20T22:00:11.877Z,37.53
2018-03-20T22:02:46.361Z,42.20
2018-03-20T22:05:20.460Z,43.70
2018-03-20T22:07:54.769Z,39.23
2018-03-20T22:10:28.866Z,36.73
2018-03-20T22:13:04.635Z,32.70
2018-03-20T22:15:39.142Z,35.93
2018-03-20T22:18:15.000Z,34.63
2018-03-20T22:20:49.805Z,31.77
2018-03-20T22:23:24.445Z,35.67
2018-03-20T22:25:59.686Z,41.43
2018-03-20T22:28:35.332Z,34.83
2018-03-20T22:31:09.340Z,33.80
2018-03-20T22:33:44.883Z,36.37
2018-03-20T22:36:18.902Z,29.77
2018-03-20T22:38:57.316Z,26.27
2018-03-20T22:41:32.844Z,23.50
2018-03-20T22:44:07.694Z,25.80
2018-03-20T22:46:41.821Z,25.40
2018-03-20T22:49:17.035Z,22.43
2018-03-20T22:51:51.152Z,23.13
2018-03-20T22:54:25.280Z,20.13
2018-03-20T22:56:59.892Z,19.03
2018-03-20T22:59:35.145Z,17.73
2018-03-20T23:02:09.851Z,19.17
2018-03-20T23:04:45.587Z,19.23
2018-03-20T23:07:19.404Z,16.43
2018-03-20T23:09:53.682Z,16.97
2018-03-20T23:12:27.603Z,17.53
2018-03-20T23:15:04.270Z,16.87
2018-03-20T23:17:38.787Z,19.77
2018-03-20T23:20:13.773Z,18.30
2018-03-20T23:22:47.656Z,16.23
2018-03-20T23:25:23.748Z,13.87
2018-03-20T23:27:57.829Z,14.13
2018-03-20T23:30:35.432Z,12.93
2018-03-20T23:33:10.047Z,14.63
2018-03-20T23:35:44.776Z,12.73
2018-03-20T23:38:18.691Z,13.07
2018-03-20T23:40:54.628Z,15.90
2018-03-20T23:43:28.860Z,13.20
2018-03-20T23:46:04.708Z,12.90
2018-03-20T23:48:39.118Z,10.93
2018-03-20T23:51:16.215Z,15.90
2018-03-20T23:53:50.228Z,15.10
2018-03-20T23:56:24.651Z,13.60
2018-03-20T23:58:58.844Z,13.60
